createdAt,value
2022-12-09T00:01:57.114Z,-5.66
2022-12-09T00:04:31.485Z,-5.63
2022-12-09T00:07:04.055Z,-5.64
2022-12-09T00:09:37.890Z,-5.64
2022-12-09T00:12:11.745Z,-5.62
2022-12-09T00:14:43.717Z,-5.61
2022-12-09T00:17:14.209Z,-5.63
2022-12-09T00:19:42.465Z,-5.63
2022-12-09T00:22:10.595Z,-5.62
2022-12-09T00:24:38.653Z,-5.58
2022-12-09T00:27:06.945Z,-5.59
2022-12-09T00:29:35.409Z,-5.59
2022-12-09T00:32:03.816Z,-5.57
2022-12-09T00:34:33.941Z,-5.56
2022-12-09T00:37:02.352Z,-5.55
2022-12-09T00:39:30.537Z,-5.56
2022-12-09T00:41:58.617Z,-5.54
2022-12-09T00:44:26.760Z,-5.52
2022-12-09T00:46:54.988Z,-5.52
2022-12-09T00:49:23.393Z,-5.51
2022-12-09T00:51:54.221Z,-5.49
2022-12-09T00:54:23.515Z,-5.47
2022-12-09T00:56:52.041Z,-5.46
2022-12-09T00:59:20.975Z,-5.44
2022-12-09T01:01:49.307Z,-5.43
2022-12-09T01:04:18.711Z,-5.44
2022-12-09T01:06:47.102Z,-5.44
2022-12-09T01:09:16.726Z,-5.45
2022-12-09T01:11:45.312Z,-5.46
2022-12-09T01:14:14.358Z,-5.45
2022-12-09T01:16:42.788Z,-5.46
2022-12-09T01:19:14.215Z,-5.51
2022-12-09T01:21:42.329Z,-5.54
2022-12-09T01:24:11.522Z,-5.57
2022-12-09T01:26:41.613Z,-5.60
2022-12-09T01:29:09.844Z,-5.62
2022-12-09T01:31:38.234Z,-5.60
2022-12-09T01:34:06.600Z,-5.61
2022-12-09T01:36:35.158Z,-5.64
2022-12-09T01:39:05.678Z,-5.69
2022-12-09T01:41:35.373Z,-5.70
2022-12-09T01:44:24.574Z,-5.73
2022-12-09T01:46:56.597Z,-5.76
2022-12-09T01:49:26.545Z,-5.76
2022-12-09T01:52:02.846Z,-5.76
2022-12-09T01:54:32.159Z,-5.78
2022-12-09T01:57:00.581Z,-5.80
2022-12-09T01:59:30.903Z,-5.82
2022-12-09T02:02:00.876Z,-5.84
2022-12-09T02:04:31.349Z,-5.85
2022-12-09T02:07:01.577Z,-5.89
2022-12-09T02:09:30.535Z,-5.93
2022-12-09T02:12:07.745Z,-5.88
2022-12-09T02:14:41.414Z,-5.82
2022-12-09T02:17:23.467Z,-5.78
2022-12-09T02:19:56.076Z,-5.80
2022-12-09T02:22:25.764Z,-5.77
2022-12-09T02:24:59.100Z,-5.75
2022-12-09T02:27:31.446Z,-5.70
2022-12-09T02:30:06.885Z,-5.66
2022-12-09T02:32:49.937Z,-5.63
2022-12-09T02:35:22.112Z,-5.64
2022-12-09T02:37:53.612Z,-5.61
2022-12-09T02:40:24.383Z,-5.59
2022-12-09T02:42:53.224Z,-5.58
2022-12-09T02:45:23.848Z,-5.58
2022-12-09T02:47:56.112Z,-5.57
2022-12-09T02:50:28.426Z,-5.57
2022-12-09T02:52:58.353Z,-5.59
2022-12-09T02:55:29.190Z,-5.58
2022-12-09T02:57:59.068Z,-5.59
2022-12-09T03:00:27.730Z,-5.61
2022-12-09T03:02:57.744Z,-5.63
2022-12-09T03:05:34.217Z,-5.64
2022-12-09T03:08:08.346Z,-5.66
2022-12-09T03:10:39.341Z,-5.68
2022-12-09T03:13:17.596Z,-5.69
2022-12-09T03:15:49.283Z,-5.73
2022-12-09T03:18:19.305Z,-5.74
2022-12-09T03:20:50.467Z,-5.73
2022-12-09T03:23:20.697Z,-5.77
2022-12-09T03:25:53.148Z,-5.77
2022-12-09T03:28:22.917Z,-5.80
2022-12-09T03:30:51.989Z,-5.80
2022-12-09T03:33:22.693Z,-5.80
2022-12-09T03:35:55.355Z,-5.82
2022-12-09T03:38:24.850Z,-5.83
2022-12-09T03:40:59.383Z,-5.88
2022-12-09T03:43:31.922Z,-5.88
2022-12-09T03:46:00.739Z,-5.91
2022-12-09T03:48:29.291Z,-5.89
2022-12-09T03:51:01.085Z,-5.87
2022-12-09T03:53:34.895Z,-5.87
2022-12-09T03:56:08.565Z,-5.87
2022-12-09T03:58:39.392Z,-5.85
2022-12-09T04:01:08.123Z,-5.83
2022-12-09T04:03:38.989Z,-5.82
2022-12-09T04:06:09.482Z,-5.79
2022-12-09T04:08:38.075Z,-5.76
2022-12-09T04:11:06.433Z,-5.74
2022-12-09T04:13:34.959Z,-5.71
2022-12-09T04:16:03.756Z,-5.69
2022-12-09T04:18:32.157Z,-5.66
2022-12-09T04:21:00.365Z,-5.63
2022-12-09T04:23:29.878Z,-5.59
2022-12-09T04:25:58.001Z,-5.56
2022-12-09T04:28:26.729Z,-5.52
2022-12-09T04:30:55.332Z,-5.52
2022-12-09T04:33:24.055Z,-5.51
2022-12-09T04:36:05.621Z,-5.51
2022-12-09T04:38:35.451Z,-5.50
2022-12-09T04:41:04.236Z,-5.46
2022-12-09T04:43:32.956Z,-5.43
2022-12-09T04:46:02.112Z,-5.42
2022-12-09T04:48:41.238Z,-5.41
2022-12-09T04:51:10.621Z,-5.38
2022-12-09T04:53:42.147Z,-5.38
2022-12-09T04:56:12.956Z,-5.36
2022-12-09T04:58:41.867Z,-5.34
2022-12-09T05:01:10.844Z,-5.34
2022-12-09T05:03:39.865Z,-5.34
2022-12-09T05:06:09.493Z,-5.35
2022-12-09T05:08:37.889Z,-5.35
2022-12-09T05:11:08.011Z,-5.38
2022-12-09T05:13:37.000Z,-5.42
2022-12-09T05:16:12.190Z,-5.48
2022-12-09T05:18:44.276Z,-5.55
2022-12-09T05:21:14.371Z,-5.59
2022-12-09T05:23:43.101Z,-5.64
2022-12-09T05:26:14.024Z,-5.69
2022-12-09T05:28:42.335Z,-5.75
2022-12-09T05:31:12.313Z,-5.79
2022-12-09T05:33:40.768Z,-5.85
2022-12-09T05:36:10.518Z,-5.89
2022-12-09T05:38:39.813Z,-5.94
2022-12-09T05:41:08.307Z,-5.98
2022-12-09T05:43:38.303Z,-6.04
2022-12-09T05:46:07.886Z,-6.06
2022-12-09T05:48:36.668Z,-6.08
2022-12-09T05:51:06.738Z,-6.07
2022-12-09T05:53:35.373Z,-6.08
2022-12-09T05:56:04.324Z,-6.15
2022-12-09T05:58:33.143Z,-6.20
2022-12-09T06:01:06.356Z,-6.26
2022-12-09T06:03:35.179Z,-6.30
2022-12-09T06:06:06.467Z,-6.31
2022-12-09T06:08:34.980Z,-6.35
2022-12-09T06:11:03.435Z,-6.37
2022-12-09T06:13:32.229Z,-6.37
2022-12-09T06:16:03.574Z,-6.36
2022-12-09T06:18:33.873Z,-6.32
2022-12-09T06:21:06.230Z,-6.31
2022-12-09T06:23:36.023Z,-6.29
2022-12-09T06:26:04.948Z,-6.24
2022-12-09T06:28:33.415Z,-6.21
2022-12-09T06:31:02.114Z,-6.19
2022-12-09T06:33:54.248Z,-6.18
2022-12-09T06:36:21.391Z,-6.16
2022-12-09T06:38:49.555Z,-6.16
2022-12-09T06:41:17.955Z,-6.15
2022-12-09T06:43:46.312Z,-6.13
2022-12-09T06:46:16.233Z,-6.14
2022-12-09T06:48:44.780Z,-6.13
2022-12-09T06:51:13.041Z,-6.11
2022-12-09T06:53:43.081Z,-6.13
2022-12-09T06:56:13.304Z,-6.10
2022-12-09T06:58:42.472Z,-6.09
2022-12-09T07:01:13.823Z,-6.03
2022-12-09T07:03:43.167Z,-5.99
2022-12-09T07:06:42.516Z,-5.94
2022-12-09T07:09:13.931Z,-5.92
2022-12-09T07:11:43.437Z,-5.87
2022-12-09T07:14:12.269Z,-5.82
2022-12-09T07:16:40.885Z,-5.79
2022-12-09T07:19:09.484Z,-5.75
2022-12-09T07:21:38.387Z,-5.73
2022-12-09T07:24:07.108Z,-5.72
2022-12-09T07:26:37.052Z,-5.69
2022-12-09T07:29:05.883Z,-5.63
2022-12-09T07:31:35.363Z,-5.61
2022-12-09T07:34:04.328Z,-5.58
2022-12-09T07:36:34.385Z,-5.56
2022-12-09T07:39:04.679Z,-5.57
2022-12-09T07:41:33.175Z,-5.59
2022-12-09T07:44:03.343Z,-5.60
2022-12-09T07:46:31.746Z,-5.58
2022-12-09T07:49:00.888Z,-5.60
2022-12-09T07:51:30.306Z,-5.61
2022-12-09T07:53:58.909Z,-5.64
2022-12-09T07:56:29.181Z,-5.69
2022-12-09T07:58:58.181Z,-5.70
2022-12-09T08:01:29.315Z,-5.73
2022-12-09T08:03:58.168Z,-5.75
2022-12-09T08:06:28.369Z,-5.75
2022-12-09T08:08:59.534Z,-5.76
2022-12-09T08:11:29.345Z,-5.77
2022-12-09T08:13:58.299Z,-5.75
2022-12-09T08:16:29.159Z,-5.76
2022-12-09T08:18:57.875Z,-5.75
2022-12-09T08:21:27.036Z,-5.74
2022-12-09T08:23:56.318Z,-5.70
2022-12-09T08:26:25.562Z,-5.67
2022-12-09T08:28:54.799Z,-5.65
2022-12-09T08:31:24.735Z,-5.64
2022-12-09T08:33:55.029Z,-5.62
2022-12-09T08:36:24.212Z,-5.59
2022-12-09T08:39:16.300Z,-5.58
2022-12-09T08:41:44.842Z,-5.60
2022-12-09T08:44:14.470Z,-5.57
2022-12-09T08:46:44.597Z,-5.57
2022-12-09T08:49:19.109Z,-5.57
2022-12-09T08:51:49.268Z,-5.53
2022-12-09T08:54:18.971Z,-5.52
2022-12-09T08:56:48.702Z,-5.53
2022-12-09T08:59:18.574Z,-5.52
2022-12-09T09:01:47.507Z,-5.50
2022-12-09T09:04:18.279Z,-5.49
2022-12-09T09:06:50.126Z,-5.45
2022-12-09T09:09:20.292Z,-5.46
2022-12-09T09:11:48.925Z,-5.47
2022-12-09T09:14:17.545Z,-5.47
2022-12-09T09:16:46.756Z,-5.42
2022-12-09T09:19:19.476Z,-5.41
2022-12-09T09:21:48.130Z,-5.40
2022-12-09T09:24:18.982Z,-5.37
2022-12-09T09:26:48.371Z,-5.31
2022-12-09T09:29:18.283Z,-5.25
2022-12-09T09:31:48.785Z,-5.21
2022-12-09T09:34:19.944Z,-5.17
2022-12-09T09:36:48.554Z,-5.14
2022-12-09T09:39:17.975Z,-5.10
2022-12-09T09:41:51.824Z,-5.00
2022-12-09T09:44:23.408Z,-4.92
2022-12-09T09:46:53.380Z,-4.87
2022-12-09T09:49:26.265Z,-4.80
2022-12-09T09:51:55.138Z,-4.77
2022-12-09T09:54:23.556Z,-4.71
2022-12-09T09:56:56.063Z,-4.62
2022-12-09T09:59:28.664Z,-4.55
2022-12-09T10:02:02.353Z,-4.51
2022-12-09T10:04:35.901Z,-4.42
2022-12-09T10:07:10.617Z,-4.36
2022-12-09T10:09:43.419Z,-4.31
2022-12-09T10:12:19.216Z,-4.19
2022-12-09T10:14:59.331Z,-4.12
2022-12-09T10:17:30.290Z,-4.02
2022-12-09T10:20:06.144Z,-3.93
2022-12-09T10:22:40.763Z,-3.86
2022-12-09T10:25:17.208Z,-3.79
2022-12-09T10:27:49.261Z,-3.72
2022-12-09T10:30:19.104Z,-3.77
2022-12-09T10:32:48.443Z,-3.66
2022-12-09T10:35:19.986Z,-3.60
2022-12-09T10:37:49.884Z,-3.49
2022-12-09T10:40:23.270Z,-3.48
2022-12-09T10:43:10.429Z,-3.38
2022-12-09T10:46:16.822Z,-3.30
2022-12-09T10:48:37.686Z,-3.20
2022-12-09T10:51:32.755Z,-3.13
2022-12-09T10:54:04.302Z,-3.12
2022-12-09T10:56:34.274Z,-3.05
2022-12-09T10:59:12.962Z,-3.13
2022-12-09T11:01:49.939Z,-3.04
2022-12-09T11:04:24.002Z,-3.02
2022-12-09T11:06:59.310Z,-3.01
2022-12-09T11:09:29.892Z,-2.94
2022-12-09T11:11:59.275Z,-2.88
2022-12-09T11:14:31.284Z,-2.83
2022-12-09T11:17:01.278Z,-2.79
2022-12-09T11:19:31.043Z,-2.82
2022-12-09T11:22:16.420Z,-2.75
2022-12-09T11:25:21.847Z,-2.73
2022-12-09T11:27:52.280Z,-2.67
2022-12-09T11:30:22.482Z,-2.64
2022-12-09T11:32:57.589Z,-2.61
2022-12-09T11:35:29.702Z,-2.59
2022-12-09T11:38:02.251Z,-2.50
2022-12-09T11:40:30.914Z,-2.48
2022-12-09T11:42:59.640Z,-2.48
2022-12-09T11:45:30.534Z,-2.37
2022-12-09T11:50:53.102Z,-2.28
2022-12-09T11:53:29.995Z,-2.31
2022-12-09T11:56:01.556Z,-2.29
2022-12-09T11:58:32.648Z,-2.36
2022-12-09T12:01:04.286Z,-2.22
2022-12-09T12:03:36.081Z,-2.27
2022-12-09T12:06:07.538Z,-2.18
2022-12-09T12:08:43.730Z,-2.09
2022-12-09T12:11:15.794Z,-2.09
2022-12-09T12:13:45.989Z,-2.01
2022-12-09T12:16:17.945Z,-1.97
2022-12-09T12:18:48.984Z,-1.86
2022-12-09T12:21:21.595Z,-1.79
2022-12-09T12:24:00.297Z,-1.73
2022-12-09T12:26:31.291Z,-1.64
2022-12-09T12:29:11.612Z,-1.59
2022-12-09T12:31:49.461Z,-1.59
2022-12-09T12:34:26.975Z,-1.56
2022-12-09T12:37:00.087Z,-1.55
2022-12-09T12:39:39.389Z,-1.44
2022-12-09T12:42:15.208Z,-1.43
2022-12-09T12:45:06.666Z,-1.41
2022-12-09T12:47:41.103Z,-1.35
2022-12-09T12:50:26.937Z,-1.33
2022-12-09T12:53:01.984Z,-1.29
2022-12-09T12:55:44.914Z,-1.25
2022-12-09T12:58:16.458Z,-1.27
2022-12-09T13:00:52.675Z,-1.25
2022-12-09T13:03:27.315Z,-1.22
2022-12-09T13:05:58.074Z,-1.23
2022-12-09T13:08:29.860Z,-1.17
2022-12-09T13:10:59.429Z,-1.17
2022-12-09T13:13:32.297Z,-1.11
2022-12-09T13:16:01.957Z,-1.05
2022-12-09T13:18:35.988Z,-1.01
2022-12-09T13:21:05.672Z,-1.03
2022-12-09T13:23:41.142Z,-0.99
2022-12-09T13:26:27.015Z,-0.97
2022-12-09T13:29:03.362Z,-0.94
2022-12-09T13:31:33.421Z,-0.97
2022-12-09T13:34:10.001Z,-0.97
2022-12-09T13:36:41.622Z,-0.92
2022-12-09T13:39:12.048Z,-0.90
2022-12-09T13:41:59.177Z,-0.88
2022-12-09T13:44:32.926Z,-0.82
2022-12-09T13:47:14.603Z,-0.78
2022-12-09T13:49:43.626Z,-0.75
2022-12-09T13:52:12.303Z,-0.74
2022-12-09T13:54:49.175Z,-0.79
2022-12-09T13:57:24.425Z,-0.74
2022-12-09T13:59:55.349Z,-0.73
2022-12-09T14:02:36.164Z,-0.69
2022-12-09T14:05:09.025Z,-0.70
2022-12-09T14:07:39.782Z,-0.68
2022-12-09T14:10:08.909Z,-0.64
2022-12-09T14:12:56.222Z,-0.63
2022-12-09T14:15:39.441Z,-0.69
2022-12-09T14:18:22.890Z,-0.65
2022-12-09T14:21:17.622Z,-0.63
2022-12-09T14:24:01.415Z,-0.67
2022-12-09T14:26:37.653Z,-0.66
2022-12-09T14:29:06.962Z,-0.70
2022-12-09T14:31:59.297Z,-0.65
2022-12-09T14:34:29.881Z,-0.71
2022-12-09T14:37:02.909Z,-0.67
2022-12-09T14:39:36.364Z,-0.71
2022-12-09T14:42:08.478Z,-0.74
2022-12-09T14:44:41.139Z,-0.78
2022-12-09T14:47:15.707Z,-0.70
2022-12-09T14:52:33.993Z,-0.70
2022-12-09T14:55:03.568Z,-0.67
2022-12-09T14:57:34.881Z,-0.64
2022-12-09T15:00:03.692Z,-0.64
2022-12-09T15:02:34.534Z,-0.65
2022-12-09T15:05:04.097Z,-0.64
2022-12-09T15:07:33.064Z,-0.66
2022-12-09T15:10:01.977Z,-0.68
2022-12-09T15:12:32.554Z,-0.69
2022-12-09T15:15:04.020Z,-0.68
2022-12-09T15:17:37.253Z,-0.74
2022-12-09T15:20:07.036Z,-0.75
2022-12-09T15:22:35.196Z,-0.78
2022-12-09T15:25:04.552Z,-0.77
2022-12-09T15:27:33.228Z,-0.75
2022-12-09T15:30:01.380Z,-0.72
2022-12-09T15:32:30.236Z,-0.74
2022-12-09T15:35:13.534Z,-0.72
2022-12-09T15:37:43.789Z,-0.68
2022-12-09T15:40:13.848Z,-0.69
2022-12-09T15:42:44.335Z,-0.70
2022-12-09T15:45:14.154Z,-0.71
2022-12-09T15:47:44.547Z,-0.65
2022-12-09T15:50:18.451Z,-0.64
2022-12-09T15:52:51.359Z,-0.67
2022-12-09T15:55:21.845Z,-0.65
2022-12-09T15:57:52.695Z,-0.65
2022-12-09T16:00:21.163Z,-0.65
2022-12-09T16:02:50.553Z,-0.59
2022-12-09T16:05:23.688Z,-0.59
2022-12-09T16:07:58.086Z,-0.57
2022-12-09T16:10:27.883Z,-0.65
2022-12-09T16:13:06.658Z,-0.61
2022-12-09T16:15:43.474Z,-0.56
2022-12-09T16:18:15.646Z,-0.51
2022-12-09T16:20:45.726Z,-0.52
2022-12-09T16:23:20.383Z,-0.55
2022-12-09T16:25:50.112Z,-0.50
2022-12-09T16:28:22.269Z,-0.53
2022-12-09T16:30:51.574Z,-0.50
2022-12-09T16:33:20.967Z,-0.51
2022-12-09T16:35:57.861Z,-0.55
2022-12-09T16:38:27.482Z,-0.53
2022-12-09T16:41:03.540Z,-0.53
2022-12-09T16:43:33.030Z,-0.53
2022-12-09T16:46:02.053Z,-0.53
2022-12-09T16:48:31.287Z,-0.55
2022-12-09T16:51:04.609Z,-0.53
2022-12-09T16:53:36.303Z,-0.52
2022-12-09T16:56:04.921Z,-0.49
2022-12-09T16:58:35.163Z,-0.48
2022-12-09T17:01:04.974Z,-0.46
2022-12-09T17:03:34.541Z,-0.48
2022-12-09T17:06:02.759Z,-0.45
2022-12-09T17:08:32.270Z,-0.44
2022-12-09T17:11:01.968Z,-0.43
2022-12-09T17:13:30.364Z,-0.43
2022-12-09T17:15:59.199Z,-0.40
2022-12-09T17:18:28.328Z,-0.41
2022-12-09T17:21:00.761Z,-0.39
2022-12-09T17:23:30.088Z,-0.38
2022-12-09T17:26:02.734Z,-0.36
2022-12-09T17:28:31.758Z,-0.37
2022-12-09T17:31:00.189Z,-0.38
2022-12-09T17:33:29.089Z,-0.35
2022-12-09T17:35:57.568Z,-0.34
2022-12-09T17:38:26.028Z,-0.33
2022-12-09T17:40:54.180Z,-0.32
2022-12-09T17:43:23.893Z,-0.31
2022-12-09T17:45:52.225Z,-0.32
2022-12-09T17:48:20.412Z,-0.31
2022-12-09T17:50:48.595Z,-0.31
2022-12-09T17:53:16.795Z,-0.27
2022-12-09T17:55:45.098Z,-0.28
2022-12-09T17:58:13.346Z,-0.28
2022-12-09T18:00:43.111Z,-0.26
2022-12-09T18:03:14.195Z,-0.29
2022-12-09T18:05:46.130Z,-0.29
2022-12-09T18:08:14.529Z,-0.26
2022-12-09T18:10:44.323Z,-0.27
2022-12-09T18:13:12.545Z,-0.26
2022-12-09T18:15:42.130Z,-0.24
2022-12-09T18:18:11.019Z,-0.24
2022-12-09T18:20:39.573Z,-0.25
2022-12-09T18:23:07.681Z,-0.23
2022-12-09T18:25:35.746Z,-0.23
2022-12-09T18:28:03.954Z,-0.23
2022-12-09T18:30:32.019Z,-0.24
2022-12-09T18:33:01.799Z,-0.23
2022-12-09T18:35:31.287Z,-0.25
2022-12-09T18:38:07.022Z,-0.24
2022-12-09T18:41:00.323Z,-0.22
2022-12-09T18:43:28.523Z,-0.20
2022-12-09T18:46:01.944Z,-0.21
2022-12-09T18:48:32.487Z,-0.19
2022-12-09T18:51:00.988Z,-0.19
2022-12-09T18:53:29.077Z,-0.19
2022-12-09T18:55:57.098Z,-0.16
2022-12-09T18:58:49.523Z,-0.15
2022-12-09T19:01:15.687Z,-0.21
2022-12-09T19:03:45.219Z,-0.21
2022-12-09T19:06:31.169Z,-0.20
2022-12-09T19:09:00.181Z,-0.25
2022-12-09T19:11:29.027Z,-0.23
2022-12-09T19:13:58.285Z,-0.23
2022-12-09T19:16:26.867Z,-0.23
2022-12-09T19:18:56.778Z,-0.24
2022-12-09T19:21:25.774Z,-0.23
2022-12-09T19:23:54.455Z,-0.24
2022-12-09T19:26:23.557Z,-0.24
2022-12-09T19:28:52.994Z,-0.25
2022-12-09T19:31:22.806Z,-0.26
2022-12-09T19:33:54.465Z,-0.28
2022-12-09T19:36:24.557Z,-0.28
2022-12-09T19:38:52.936Z,-0.30
2022-12-09T19:41:21.156Z,-0.33
2022-12-09T19:43:49.352Z,-0.39
2022-12-09T19:46:18.065Z,-0.37
2022-12-09T19:48:46.266Z,-0.37
2022-12-09T19:51:15.518Z,-0.39
2022-12-09T19:53:45.479Z,-0.39
2022-12-09T19:56:14.981Z,-0.41
2022-12-09T19:58:43.995Z,-0.44
2022-12-09T20:01:12.887Z,-0.49
2022-12-09T20:03:42.267Z,-0.49
2022-12-09T20:06:11.811Z,-0.53
2022-12-09T20:08:40.561Z,-0.61
2022-12-09T20:11:13.714Z,-0.63
2022-12-09T20:13:42.377Z,-0.74
2022-12-09T20:16:11.161Z,-0.83
2022-12-09T20:18:39.647Z,-0.89
2022-12-09T20:21:08.974Z,-0.98
2022-12-09T20:23:38.477Z,-1.08
2022-12-09T20:26:06.995Z,-1.15
2022-12-09T20:28:37.080Z,-1.20
2022-12-09T20:31:05.982Z,-1.29
2022-12-09T20:33:34.936Z,-1.32
2022-12-09T20:36:07.566Z,-1.37
2022-12-09T20:38:36.506Z,-1.42
2022-12-09T20:41:05.872Z,-1.48
2022-12-09T20:43:39.504Z,-1.55
2022-12-09T20:46:11.927Z,-1.60
2022-12-09T20:48:41.238Z,-1.74
2022-12-09T20:51:10.926Z,-1.77
2022-12-09T20:53:39.224Z,-1.87
2022-12-09T20:56:07.470Z,-1.89
2022-12-09T20:58:35.808Z,-1.96
2022-12-09T21:01:07.751Z,-1.99
2022-12-09T21:03:37.433Z,-2.04
2022-12-09T21:06:05.727Z,-2.13
2022-12-09T21:08:34.177Z,-2.17
2022-12-09T21:11:06.309Z,-2.23
2022-12-09T21:13:41.022Z,-2.34
2022-12-09T21:16:12.583Z,-2.35
2022-12-09T21:18:42.348Z,-2.35
2022-12-09T21:21:10.505Z,-2.40
2022-12-09T21:23:39.295Z,-2.38
2022-12-09T21:26:08.789Z,-2.46
2022-12-09T21:28:38.040Z,-2.49
2022-12-09T21:31:07.812Z,-2.48
2022-12-09T21:33:36.246Z,-2.50
2022-12-09T21:36:08.303Z,-2.50
2022-12-09T21:38:36.498Z,-2.57
2022-12-09T21:41:05.320Z,-2.54
2022-12-09T21:43:34.007Z,-2.58
2022-12-09T21:46:03.118Z,-2.63
2022-12-09T21:48:32.243Z,-2.69
2022-12-09T21:51:01.213Z,-2.69
2022-12-09T21:53:31.945Z,-2.73
2022-12-09T21:56:02.639Z,-2.76
2022-12-09T21:58:31.604Z,-2.76
2022-12-09T22:00:59.901Z,-2.84
2022-12-09T22:03:28.053Z,-2.83
2022-12-09T22:05:58.453Z,-2.86
2022-12-09T22:08:27.708Z,-2.84
2022-12-09T22:10:58.527Z,-2.86
2022-12-09T22:13:27.019Z,-2.87
2022-12-09T22:15:55.290Z,-2.92
2022-12-09T22:18:23.358Z,-2.97
2022-12-09T22:23:40.264Z,-2.99
2022-12-09T22:26:16.985Z,-2.97
2022-12-09T22:28:45.537Z,-3.00
2022-12-09T22:31:14.900Z,-2.98
2022-12-09T22:33:43.215Z,-2.99
2022-12-09T22:36:12.525Z,-2.98
2022-12-09T22:38:41.892Z,-2.98
2022-12-09T22:41:10.966Z,-2.98
2022-12-09T22:43:41.291Z,-3.08
2022-12-09T22:46:14.305Z,-3.03
2022-12-09T22:48:49.478Z,-3.01
2022-12-09T22:51:21.619Z,-2.99
2022-12-09T22:53:55.252Z,-2.92
2022-12-09T22:56:28.518Z,-2.88
2022-12-09T22:59:02.505Z,-2.87
2022-12-09T23:01:35.336Z,-2.84
2022-12-09T23:04:09.667Z,-2.82
2022-12-09T23:06:44.415Z,-2.80
2022-12-09T23:09:19.843Z,-2.77
2022-12-09T23:11:50.514Z,-2.76
2022-12-09T23:14:19.962Z,-2.71
2022-12-09T23:16:51.911Z,-2.68
2022-12-09T23:19:22.930Z,-2.65
2022-12-09T23:21:54.992Z,-2.67
2022-12-09T23:24:27.414Z,-2.70
2022-12-09T23:26:57.019Z,-2.68
2022-12-09T23:29:27.898Z,-2.70
2022-12-09T23:31:56.635Z,-2.75
2022-12-09T23:34:25.006Z,-2.80
2022-12-09T23:36:53.740Z,-2.79
2022-12-09T23:39:24.942Z,-2.79
2022-12-09T23:41:53.183Z,-2.77
2022-12-09T23:44:21.699Z,-2.73
2022-12-09T23:46:51.703Z,-2.72
2022-12-09T23:49:22.253Z,-2.75
2022-12-09T23:51:50.978Z,-2.67
2022-12-09T23:54:20.737Z,-2.62
2022-12-09T23:56:51.136Z,-2.59
2022-12-09T23:59:21.719Z,-2.58
